Space — ZCTI8 — position and weather

sailwx.info

Track history (hours):
 
Tides and Currents Weather Stations Pressure Air Temp Water Temp Dewpoint Dewpoint Depression Visibility Wind Speed Wind Dir Waves Ship Positions

Space

Last reported at 2016-Jun-30 06:12 UTC. Time now 2016-Jun-30 23:09 UTC.
Position N 43°16' E 006°40'.

Length 45 m; draft 2.7 m.

Type: Pleasure craft. MMSI: 319917000.

Date/timePositionNaut miles runAvg speedWind from/ knotsBaromVisibWave heightAir tempDewpointWater temp
2016-Jun-30 06:12N 43°16' E 006°40'  
2016-Jun-25 22:18N 43°16' E 006°40'0 0.0
2016-Jun-25 16:27N 43°16' E 006°40'14 0.8
2016-Jun-24 22:26N 43°24' E 006°55'1213.7
2016-Jun-24 21:33N 43°32' E 007°08'8 7.3
2016-Jun-24 20:31N 43°39' E 007°11'0 0.0
2016-Jun-24 19:31N 43°39' E 007°11'0 0.0
2016-Jun-24 18:31N 43°39' E 007°11'1 0.7
2016-Jun-24 17:33N 43°39' E 007°10'4 4.0
2016-Jun-24 16:33N 43°35' E 007°07'0 0.0
2016-Jun-24 15:33N 43°35' E 007°07'0 0.0
2016-Jun-24 14:33N 43°35' E 007°07'0 0.0
2016-Jun-24 13:33N 43°35' E 007°07'0 0.0
2016-Jun-24 12:33N 43°35' E 007°07'0 0.0
2016-Jun-24 11:33N 43°35' E 007°07'0 0.0
2016-Jun-24 10:33N 43°35' E 007°07'0 0.0
2016-Jun-24 09:33N 43°35' E 007°07'0 0.0
2016-Jun-24 08:33N 43°35' E 007°07'0 0.0
2016-Jun-24 07:33N 43°35' E 007°07'0 0.0
2016-Jun-24 04:33N 43°35' E 007°07'0 0.0
2016-Jun-24 03:33N 43°35' E 007°07'0 0.0
2016-Jun-24 02:33N 43°35' E 007°07'0 0.0
2016-Jun-24 01:33N 43°35' E 007°07'0 0.0
2016-Jun-24 00:33N 43°35' E 007°07'0 0.0
2016-Jun-23 23:33N 43°35' E 007°07'0 0.0
2016-Jun-23 22:33N 43°35' E 007°07'0 0.0
2016-Jun-23 21:33N 43°35' E 007°07'0 0.0
2016-Jun-23 20:33N 43°35' E 007°07'0 0.0
2016-Jun-23 19:33N 43°35' E 007°07'0 0.0
2016-Jun-23 18:33N 43°35' E 007°07'0 0.0
2016-Jun-23 17:33N 43°35' E 007°07'0 0.0
2016-Jun-23 16:33N 43°35' E 007°07'0 0.0
2016-Jun-23 15:33N 43°35' E 007°07'0 0.0
2016-Jun-23 14:33N 43°35' E 007°07'0 0.0
2016-Jun-23 13:33N 43°35' E 007°07'0 0.0
2016-Jun-23 12:33N 43°35' E 007°07'0 0.0
2016-Jun-23 11:33N 43°35' E 007°07'0 0.0
2016-Jun-23 10:33N 43°35' E 007°07'0 0.0
2016-Jun-23 09:33N 43°35' E 007°07'0 0.0
2016-Jun-23 08:33N 43°35' E 007°07'0 0.0
2016-Jun-23 07:33N 43°35' E 007°07'0 0.0
2016-Jun-23 05:33N 43°35' E 007°07'0 0.0
2016-Jun-23 04:33N 43°35' E 007°07'0 0.0
2016-Jun-23 03:33N 43°35' E 007°07'0 0.0
2016-Jun-23 02:33N 43°35' E 007°07'0 0.0
2016-Jun-23 01:33N 43°35' E 007°07'0 0.0
2016-Jun-23 00:33N 43°35' E 007°07'0 0.0
2016-Jun-22 23:33N 43°35' E 007°07'0 0.0
2016-Jun-22 22:33N 43°35' E 007°07'0 0.0
2016-Jun-22 21:33N 43°35' E 007°07'0 0.0
2016-Jun-22 20:33N 43°35' E 007°07'0 0.0
2016-Jun-22 19:33N 43°35' E 007°07'0 0.0
2016-Jun-22 18:33N 43°35' E 007°07'0 0.0
2016-Jun-22 17:33N 43°35' E 007°07'0 0.0
2016-Jun-22 16:33N 43°35' E 007°07'0 0.0
2016-Jun-22 15:33N 43°35' E 007°07'0 0.0
2016-Jun-22 14:33N 43°35' E 007°07'0 0.0
2016-Jun-22 13:33N 43°35' E 007°07'0 0.0
2016-Jun-22 12:33N 43°35' E 007°07'0 0.0
2016-Jun-22 11:33N 43°35' E 007°07'0 0.0
2016-Jun-22 10:33N 43°35' E 007°07'0 0.0
2016-Jun-22 09:33N 43°35' E 007°07'0 0.0
2016-Jun-22 08:33N 43°35' E 007°07'0 0.0
2016-Jun-22 07:33N 43°35' E 007°07'0 0.0
2016-Jun-22 06:33N 43°35' E 007°07'0 0.0
2016-Jun-22 05:33N 43°35' E 007°07'0 0.0
2016-Jun-22 04:33N 43°35' E 007°07'0 0.0
2016-Jun-22 03:33N 43°35' E 007°07'0 0.0
2016-Jun-22 02:33N 43°35' E 007°07'0 0.0
2016-Jun-22 01:33N 43°35' E 007°07'0 0.0
2016-Jun-22 00:33N 43°35' E 007°07'0 0.0
2016-Jun-21 23:33N 43°35' E 007°07'0 0.0
2016-Jun-21 22:34N 43°35' E 007°07'0 0.0
2016-Jun-21 21:33N 43°35' E 007°07'0 0.0
2016-Jun-21 20:33N 43°35' E 007°07'0 0.0
2016-Jun-21 19:33N 43°35' E 007°07'0 0.0
2016-Jun-21 18:33N 43°35' E 007°07'0 0.0
2016-Jun-21 17:33N 43°35' E 007°07'0 0.0
2016-Jun-21 16:33N 43°35' E 007°07'0 0.0
2016-Jun-21 15:33N 43°35' E 007°07'0 0.0
2016-Jun-21 14:33N 43°35' E 007°07'0 0.0
2016-Jun-21 13:33N 43°35' E 007°07'0 0.0
2016-Jun-21 12:33N 43°35' E 007°07'0 0.0
2016-Jun-21 11:33N 43°35' E 007°07'0 0.0
2016-Jun-21 10:33N 43°35' E 007°07'0 0.0
2016-Jun-21 09:33N 43°35' E 007°07'0 0.0
2016-Jun-21 08:33N 43°35' E 007°07'0 0.0
2016-Jun-21 07:33N 43°35' E 007°07'0 0.0
2016-Jun-21 06:33N 43°35' E 007°07'0 0.0
2016-Jun-21 04:31N 43°35' E 007°07'0 0.0
2016-Jun-21 03:33N 43°35' E 007°07'0 0.0
2016-Jun-21 02:33N 43°35' E 007°07'0 0.0
2016-Jun-21 01:33N 43°35' E 007°07'0 0.0
2016-Jun-21 00:33N 43°35' E 007°07'0 0.0
2016-Jun-20 23:33N 43°35' E 007°07'0 0.0
2016-Jun-20 22:33N 43°35' E 007°07'0 0.0
2016-Jun-20 21:33N 43°35' E 007°07'0 0.0
2016-Jun-20 20:33N 43°35' E 007°07'0 0.0
2016-Jun-20 19:33N 43°35' E 007°07'0 0.0
2016-Jun-20 18:33N 43°35' E 007°07'0 0.0
2016-Jun-20 17:33N 43°35' E 007°07'0 0.0
2016-Jun-20 16:33N 43°35' E 007°07'0 0.0
2016-Jun-20 15:33N 43°35' E 007°07'0 0.0
2016-Jun-20 14:33N 43°35' E 007°07'0 0.0
2016-Jun-20 13:33N 43°35' E 007°07'0 0.0
2016-Jun-20 12:33N 43°35' E 007°07'0 0.0
2016-Jun-20 11:33N 43°35' E 007°07'0 0.0
2016-Jun-20 10:33N 43°35' E 007°07'0 0.0
2016-Jun-20 09:33N 43°35' E 007°07'0 0.0
2016-Jun-20 08:33N 43°35' E 007°07'0 0.0
2016-Jun-20 07:33N 43°35' E 007°07'5 4.6
2016-Jun-20 06:33N 43°39' E 007°11'  
Track history (hours):
 
Tides and Currents Weather Stations Pressure Air Temp Water Temp Dewpoint Dewpoint Depression Visibility Wind Speed Wind Dir Waves Ship Positions

Space

Last reported at 2016-Jun-30 06:12 UTC. Time now 2016-Jun-30 23:09 UTC.
Position N 43°16' E 006°40'.

Length 45 m; draft 2.7 m.

Type: Pleasure craft. MMSI: 319917000.

Date/timePositionNaut miles runAvg speedWind from/ knotsBaromVisibWave heightAir tempDewpointWater temp
2016-Jun-30 06:12N 43°16' E 006°40'  
2016-Jun-25 22:18N 43°16' E 006°40'0 0.0
2016-Jun-25 16:27N 43°16' E 006°40'14 0.8
2016-Jun-24 22:26N 43°24' E 006°55'1213.7
2016-Jun-24 21:33N 43°32' E 007°08'8 7.3
2016-Jun-24 20:31N 43°39' E 007°11'0 0.0
2016-Jun-24 19:31N 43°39' E 007°11'0 0.0
2016-Jun-24 18:31N 43°39' E 007°11'1 0.7
2016-Jun-24 17:33N 43°39' E 007°10'4 4.0
2016-Jun-24 16:33N 43°35' E 007°07'0 0.0
2016-Jun-24 15:33N 43°35' E 007°07'0 0.0
2016-Jun-24 14:33N 43°35' E 007°07'0 0.0
2016-Jun-24 13:33N 43°35' E 007°07'0 0.0
2016-Jun-24 12:33N 43°35' E 007°07'0 0.0
2016-Jun-24 11:33N 43°35' E 007°07'0 0.0
2016-Jun-24 10:33N 43°35' E 007°07'0 0.0
2016-Jun-24 09:33N 43°35' E 007°07'0 0.0
2016-Jun-24 08:33N 43°35' E 007°07'0 0.0
2016-Jun-24 07:33N 43°35' E 007°07'0 0.0
2016-Jun-24 04:33N 43°35' E 007°07'0 0.0
2016-Jun-24 03:33N 43°35' E 007°07'0 0.0
2016-Jun-24 02:33N 43°35' E 007°07'0 0.0
2016-Jun-24 01:33N 43°35' E 007°07'0 0.0
2016-Jun-24 00:33N 43°35' E 007°07'0 0.0
2016-Jun-23 23:33N 43°35' E 007°07'0 0.0
2016-Jun-23 22:33N 43°35' E 007°07'0 0.0
2016-Jun-23 21:33N 43°35' E 007°07'0 0.0
2016-Jun-23 20:33N 43°35' E 007°07'0 0.0
2016-Jun-23 19:33N 43°35' E 007°07'0 0.0
2016-Jun-23 18:33N 43°35' E 007°07'0 0.0
2016-Jun-23 17:33N 43°35' E 007°07'0 0.0
2016-Jun-23 16:33N 43°35' E 007°07'0 0.0
2016-Jun-23 15:33N 43°35' E 007°07'0 0.0
2016-Jun-23 14:33N 43°35' E 007°07'0 0.0
2016-Jun-23 13:33N 43°35' E 007°07'0 0.0
2016-Jun-23 12:33N 43°35' E 007°07'0 0.0
2016-Jun-23 11:33N 43°35' E 007°07'0 0.0
2016-Jun-23 10:33N 43°35' E 007°07'0 0.0
2016-Jun-23 09:33N 43°35' E 007°07'0 0.0
2016-Jun-23 08:33N 43°35' E 007°07'0 0.0
2016-Jun-23 07:33N 43°35' E 007°07'0 0.0
2016-Jun-23 05:33N 43°35' E 007°07'0 0.0
2016-Jun-23 04:33N 43°35' E 007°07'0 0.0
2016-Jun-23 03:33N 43°35' E 007°07'0 0.0
2016-Jun-23 02:33N 43°35' E 007°07'0 0.0
2016-Jun-23 01:33N 43°35' E 007°07'0 0.0
2016-Jun-23 00:33N 43°35' E 007°07'0 0.0
2016-Jun-22 23:33N 43°35' E 007°07'0 0.0
2016-Jun-22 22:33N 43°35' E 007°07'0 0.0
2016-Jun-22 21:33N 43°35' E 007°07'0 0.0
2016-Jun-22 20:33N 43°35' E 007°07'0 0.0
2016-Jun-22 19:33N 43°35' E 007°07'0 0.0
2016-Jun-22 18:33N 43°35' E 007°07'0 0.0
2016-Jun-22 17:33N 43°35' E 007°07'0 0.0
2016-Jun-22 16:33N 43°35' E 007°07'0 0.0
2016-Jun-22 15:33N 43°35' E 007°07'0 0.0
2016-Jun-22 14:33N 43°35' E 007°07'0 0.0
2016-Jun-22 13:33N 43°35' E 007°07'0 0.0
2016-Jun-22 12:33N 43°35' E 007°07'0 0.0
2016-Jun-22 11:33N 43°35' E 007°07'0 0.0
2016-Jun-22 10:33N 43°35' E 007°07'0 0.0
2016-Jun-22 09:33N 43°35' E 007°07'0 0.0
2016-Jun-22 08:33N 43°35' E 007°07'0 0.0
2016-Jun-22 07:33N 43°35' E 007°07'0 0.0
2016-Jun-22 06:33N 43°35' E 007°07'0 0.0
2016-Jun-22 05:33N 43°35' E 007°07'0 0.0
2016-Jun-22 04:33N 43°35' E 007°07'0 0.0
2016-Jun-22 03:33N 43°35' E 007°07'0 0.0
2016-Jun-22 02:33N 43°35' E 007°07'0 0.0
2016-Jun-22 01:33N 43°35' E 007°07'0 0.0
2016-Jun-22 00:33N 43°35' E 007°07'0 0.0
2016-Jun-21 23:33N 43°35' E 007°07'0 0.0
2016-Jun-21 22:34N 43°35' E 007°07'0 0.0
2016-Jun-21 21:33N 43°35' E 007°07'0 0.0
2016-Jun-21 20:33N 43°35' E 007°07'0 0.0
2016-Jun-21 19:33N 43°35' E 007°07'0 0.0
2016-Jun-21 18:33N 43°35' E 007°07'0 0.0
2016-Jun-21 17:33N 43°35' E 007°07'0 0.0
2016-Jun-21 16:33N 43°35' E 007°07'0 0.0
2016-Jun-21 15:33N 43°35' E 007°07'0 0.0
2016-Jun-21 14:33N 43°35' E 007°07'0 0.0
2016-Jun-21 13:33N 43°35' E 007°07'0 0.0
2016-Jun-21 12:33N 43°35' E 007°07'0 0.0
2016-Jun-21 11:33N 43°35' E 007°07'0 0.0
2016-Jun-21 10:33N 43°35' E 007°07'0 0.0
2016-Jun-21 09:33N 43°35' E 007°07'0 0.0
2016-Jun-21 08:33N 43°35' E 007°07'0 0.0
2016-Jun-21 07:33N 43°35' E 007°07'0 0.0
2016-Jun-21 06:33N 43°35' E 007°07'0 0.0
2016-Jun-21 04:31N 43°35' E 007°07'0 0.0
2016-Jun-21 03:33N 43°35' E 007°07'0 0.0
2016-Jun-21 02:33N 43°35' E 007°07'0 0.0
2016-Jun-21 01:33N 43°35' E 007°07'0 0.0
2016-Jun-21 00:33N 43°35' E 007°07'0 0.0
2016-Jun-20 23:33N 43°35' E 007°07'0 0.0
2016-Jun-20 22:33N 43°35' E 007°07'0 0.0
2016-Jun-20 21:33N 43°35' E 007°07'0 0.0
2016-Jun-20 20:33N 43°35' E 007°07'0 0.0
2016-Jun-20 19:33N 43°35' E 007°07'0 0.0
2016-Jun-20 18:33N 43°35' E 007°07'0 0.0
2016-Jun-20 17:33N 43°35' E 007°07'0 0.0
2016-Jun-20 16:33N 43°35' E 007°07'0 0.0
2016-Jun-20 15:33N 43°35' E 007°07'0 0.0
2016-Jun-20 14:33N 43°35' E 007°07'0 0.0
2016-Jun-20 13:33N 43°35' E 007°07'0 0.0
2016-Jun-20 12:33N 43°35' E 007°07'0 0.0
2016-Jun-20 11:33N 43°35' E 007°07'0 0.0
2016-Jun-20 10:33N 43°35' E 007°07'0 0.0
2016-Jun-20 09:33N 43°35' E 007°07'0 0.0
2016-Jun-20 08:33N 43°35' E 007°07'0 0.0
2016-Jun-20 07:33N 43°35' E 007°07'5 4.6
2016-Jun-20 06:33N 43°39' E 007°11'  

Dump ship's entire track history